sensor_id;sensor_type;location;lat;lon;timestamp;pressure;altitude;pressure_sealevel;temperature
5571;BMP180;2808;51.240;6.794;2023-04-15T00:00:01;100283.00;;;9.70
5571;BMP180;2808;51.240;6.794;2023-04-15T00:02:48;100288.00;;;9.70
5571;BMP180;2808;51.240;6.794;2023-04-15T00:08:24;100288.00;;;9.50
5571;BMP180;2808;51.240;6.794;2023-04-15T00:11:14;100285.00;;;9.50
5571;BMP180;2808;51.240;6.794;2023-04-15T00:14:35;100278.00;;;9.50
5571;BMP180;2808;51.240;6.794;2023-04-15T00:17:39;100283.00;;;9.40
5571;BMP180;2808;51.240;6.794;2023-04-15T00:20:29;100281.00;;;9.40
5571;BMP180;2808;51.240;6.794;2023-04-15T00:23:26;100282.00;;;9.40
5571;BMP180;2808;51.240;6.794;2023-04-15T00:26:12;100275.00;;;9.40
5571;BMP180;2808;51.240;6.794;2023-04-15T00:31:57;100274.00;;;9.30
5571;BMP180;2808;51.240;6.794;2023-04-15T00:44:46;100280.00;;;9.20
5571;BMP180;2808;51.240;6.794;2023-04-15T00:47:33;100279.00;;;9.20
5571;BMP180;2808;51.240;6.794;2023-04-15T00:50:27;100281.00;;;9.20
5571;BMP180;2808;51.240;6.794;2023-04-15T00:53:22;100287.00;;;9.10
5571;BMP180;2808;51.240;6.794;2023-04-15T00:56:11;100285.00;;;9.10
5571;BMP180;2808;51.240;6.794;2023-04-15T00:59:18;100282.00;;;9.10
5571;BMP180;2808;51.240;6.794;2023-04-15T01:02:08;100277.00;;;9.10
5571;BMP180;2808;51.240;6.794;2023-04-15T01:04:57;100280.00;;;9.00
5571;BMP180;2808;51.240;6.794;2023-04-15T01:07:34;100276.00;;;9.00
5571;BMP180;2808;51.240;6.794;2023-04-15T01:10:15;100285.00;;;9.00
5571;BMP180;2808;51.240;6.794;2023-04-15T01:13:17;100282.00;;;9.00
5571;BMP180;2808;51.240;6.794;2023-04-15T01:16:38;100278.00;;;9.00
5571;BMP180;2808;51.240;6.794;2023-04-15T01:23:02;100271.00;;;8.90
5571;BMP180;2808;51.240;6.794;2023-04-15T01:26:21;100266.00;;;8.90
5571;BMP180;2808;51.240;6.794;2023-04-15T01:29:39;100271.00;;;8.90
5571;BMP180;2808;51.240;6.794;2023-04-15T01:32:22;100276.00;;;8.80
5571;BMP180;2808;51.240;6.794;2023-04-15T01:35:20;100277.00;;;8.80
5571;BMP180;2808;51.240;6.794;2023-04-15T01:37:52;100277.00;;;8.80
5571;BMP180;2808;51.240;6.794;2023-04-15T01:40:52;100283.00;;;8.80
5571;BMP180;2808;51.240;6.794;2023-04-15T01:43:47;100272.00;;;8.80
5571;BMP180;2808;51.240;6.794;2023-04-15T01:47:21;100277.00;;;8.80
5571;BMP180;2808;51.240;6.794;2023-04-15T01:50:10;100279.00;;;8.80
5571;BMP180;2808;51.240;6.794;2023-04-15T01:53:02;100274.00;;;8.70
5571;BMP180;2808;51.240;6.794;2023-04-15T01:55:59;100268.00;;;8.70
5571;BMP180;2808;51.240;6.794;2023-04-15T01:58:30;100259.00;;;8.70
5571;BMP180;2808;51.240;6.794;2023-04-15T02:01:18;100267.00;;;8.70
5571;BMP180;2808;51.240;6.794;2023-04-15T02:03:58;100266.00;;;8.70
5571;BMP180;2808;51.240;6.794;2023-04-15T02:06:33;100273.00;;;8.60
5571;BMP180;2808;51.240;6.794;2023-04-15T02:09:25;100274.00;;;8.60
5571;BMP180;2808;51.240;6.794;2023-04-15T02:12:21;100274.00;;;8.60
5571;BMP180;2808;51.240;6.794;2023-04-15T02:15:03;100281.00;;;8.60
5571;BMP180;2808;51.240;6.794;2023-04-15T02:17:50;100287.00;;;8.60
5571;BMP180;2808;51.240;6.794;2023-04-15T02:20:23;100289.00;;;8.50
5571;BMP180;2808;51.240;6.794;2023-04-15T02:23:06;100289.00;;;8.50
5571;BMP180;2808;51.240;6.794;2023-04-15T02:25:53;100288.00;;;8.50
5571;BMP180;2808;51.240;6.794;2023-04-15T02:31:25;100292.00;;;8.40
5571;BMP180;2808;51.240;6.794;2023-04-15T02:34:28;100291.00;;;8.30
5571;BMP180;2808;51.240;6.794;2023-04-15T02:44:48;100291.00;;;8.20
5571;BMP180;2808;51.240;6.794;2023-04-15T02:47:29;100298.00;;;8.20
5571;BMP180;2808;51.240;6.794;2023-04-15T02:50:11;100301.00;;;8.20
5571;BMP180;2808;51.240;6.794;2023-04-15T02:53:00;100307.00;;;8.10
5571;BMP180;2808;51.240;6.794;2023-04-15T02:55:50;100305.00;;;8.00
5571;BMP180;2808;51.240;6.794;2023-04-15T02:58:29;100307.00;;;7.90
5571;BMP180;2808;51.240;6.794;2023-04-15T03:01:08;100312.00;;;7.90
5571;BMP180;2808;51.240;6.794;2023-04-15T03:03:55;100313.00;;;7.80
5571;BMP180;2808;51.240;6.794;2023-04-15T03:06:25;100325.00;;;7.70
5571;BMP180;2808;51.240;6.794;2023-04-15T03:09:49;100317.00;;;7.70
5571;BMP180;2808;51.240;6.794;2023-04-15T03:15:15;100318.00;;;7.60
5571;BMP180;2808;51.240;6.794;2023-04-15T03:17:46;100311.00;;;7.60
5571;BMP180;2808;51.240;6.794;2023-04-15T03:27:46;100307.00;;;7.50
5571;BMP180;2808;51.240;6.794;2023-04-15T03:30:18;100310.00;;;7.50
5571;BMP180;2808;51.240;6.794;2023-04-15T03:32:51;100310.00;;;7.40
5571;BMP180;2808;51.240;6.794;2023-04-15T03:35:24;100321.00;;;7.40
5571;BMP180;2808;51.240;6.794;2023-04-15T03:38:03;100323.00;;;7.40
5571;BMP180;2808;51.240;6.794;2023-04-15T03:40:51;100313.00;;;7.40
5571;BMP180;2808;51.240;6.794;2023-04-15T03:43:49;100331.00;;;7.30
5571;BMP180;2808;51.240;6.794;2023-04-15T03:46:33;100335.00;;;7.30
5571;BMP180;2808;51.240;6.794;2023-04-15T03:49:40;100341.00;;;7.30
5571;BMP180;2808;51.240;6.794;2023-04-15T03:52:34;100337.00;;;7.30
5571;BMP180;2808;51.240;6.794;2023-04-15T03:58:18;100343.00;;;7.30
5571;BMP180;2808;51.240;6.794;2023-04-15T04:04:26;100350.00;;;7.20
5571;BMP180;2808;51.240;6.794;2023-04-15T04:07:17;100355.00;;;7.20
5571;BMP180;2808;51.240;6.794;2023-04-15T04:09:52;100365.00;;;7.10
5571;BMP180;2808;51.240;6.794;2023-04-15T04:12:20;100365.00;;;7.10
5571;BMP180;2808;51.240;6.794;2023-04-15T04:14:52;100358.00;;;7.00
5571;BMP180;2808;51.240;6.794;2023-04-15T04:17:23;100357.00;;;7.00
5571;BMP180;2808;51.240;6.794;2023-04-15T04:19:53;100362.00;;;7.00
5571;BMP180;2808;51.240;6.794;2023-04-15T04:25:08;100364.00;;;7.00
5571;BMP180;2808;51.240;6.794;2023-04-15T04:27:41;100363.00;;;7.10
5571;BMP180;2808;51.240;6.794;2023-04-15T04:30:11;100362.00;;;7.10
5571;BMP180;2808;51.240;6.794;2023-04-15T04:32:43;100365.00;;;7.10
5571;BMP180;2808;51.240;6.794;2023-04-15T04:35:16;100369.00;;;7.10
5571;BMP180;2808;51.240;6.794;2023-04-15T04:37:44;100369.00;;;7.10
5571;BMP180;2808;51.240;6.794;2023-04-15T04:40:20;100371.00;;;7.10
5571;BMP180;2808;51.240;6.794;2023-04-15T04:42:54;100374.00;;;7.10
5571;BMP180;2808;51.240;6.794;2023-04-15T04:45:24;100372.00;;;7.10
5571;BMP180;2808;51.240;6.794;2023-04-15T04:47:57;100380.00;;;7.10
5571;BMP180;2808;51.240;6.794;2023-04-15T04:50:33;100377.00;;;7.20
5571;BMP180;2808;51.240;6.794;2023-04-15T04:53:12;100383.00;;;7.10
5571;BMP180;2808;51.240;6.794;2023-04-15T04:55:46;100391.00;;;7.10
5571;BMP180;2808;51.240;6.794;2023-04-15T04:58:18;100390.00;;;7.10
5571;BMP180;2808;51.240;6.794;2023-04-15T05:01:01;100394.00;;;7.10
5571;BMP180;2808;51.240;6.794;2023-04-15T05:03:35;100401.00;;;7.20
5571;BMP180;2808;51.240;6.794;2023-04-15T05:06:04;100385.00;;;7.20
5571;BMP180;2808;51.240;6.794;2023-04-15T05:08:46;100393.00;;;7.20
5571;BMP180;2808;51.240;6.794;2023-04-15T05:11:16;100395.00;;;7.20
5571;BMP180;2808;51.240;6.794;2023-04-15T05:13:48;100398.00;;;7.30
5571;BMP180;2808;51.240;6.794;2023-04-15T05:16:28;100404.00;;;7.30
5571;BMP180;2808;51.240;6.794;2023-04-15T05:18:59;100407.00;;;7.40
5571;BMP180;2808;51.240;6.794;2023-04-15T05:21:46;100411.00;;;7.50
5571;BMP180;2808;51.240;6.794;2023-04-15T05:24:20;100405.00;;;7.50
5571;BMP180;2808;51.240;6.794;2023-04-15T05:26:58;100402.00;;;7.70
5571;BMP180;2808;51.240;6.794;2023-04-15T05:41:30;100424.00;;;8.20
5571;BMP180;2808;51.240;6.794;2023-04-15T05:43:55;100427.00;;;8.30
5571;BMP180;2808;51.240;6.794;2023-04-15T05:46:38;100433.00;;;8.40
5571;BMP180;2808;51.240;6.794;2023-04-15T05:49:06;100427.00;;;8.40
5571;BMP180;2808;51.240;6.794;2023-04-15T05:51:56;100432.00;;;8.50
5571;BMP180;2808;51.240;6.794;2023-04-15T05:54:45;100433.00;;;8.60
5571;BMP180;2808;51.240;6.794;2023-04-15T05:57:25;100432.00;;;8.70
5571;BMP180;2808;51.240;6.794;2023-04-15T06:00:17;100444.00;;;8.80
5571;BMP180;2808;51.240;6.794;2023-04-15T06:03:09;100444.00;;;8.90
5571;BMP180;2808;51.240;6.794;2023-04-15T06:06:01;100445.00;;;9.20
5571;BMP180;2808;51.240;6.794;2023-04-15T06:08:34;100461.00;;;9.40
5571;BMP180;2808;51.240;6.794;2023-04-15T06:11:06;100460.00;;;9.50
5571;BMP180;2808;51.240;6.794;2023-04-15T06:13:51;100465.00;;;9.70
5571;BMP180;2808;51.240;6.794;2023-04-15T06:16:46;100464.00;;;9.80
5571;BMP180;2808;51.240;6.794;2023-04-15T06:25:47;100482.00;;;10.10
5571;BMP180;2808;51.240;6.794;2023-04-15T06:28:21;100486.00;;;10.20
5571;BMP180;2808;51.240;6.794;2023-04-15T06:31:13;100488.00;;;10.20
5571;BMP180;2808;51.240;6.794;2023-04-15T06:33:48;100489.00;;;10.20
5571;BMP180;2808;51.240;6.794;2023-04-15T06:36:28;100489.00;;;10.30
5571;BMP180;2808;51.240;6.794;2023-04-15T06:38:59;100495.00;;;10.50
5571;BMP180;2808;51.240;6.794;2023-04-15T06:41:39;100495.00;;;10.60
5571;BMP180;2808;51.240;6.794;2023-04-15T06:44:07;100502.00;;;10.80
5571;BMP180;2808;51.240;6.794;2023-04-15T06:46:55;100502.00;;;11.00
5571;BMP180;2808;51.240;6.794;2023-04-15T06:49:29;100505.00;;;11.30
5571;BMP180;2808;51.240;6.794;2023-04-15T06:52:16;100506.00;;;11.60
5571;BMP180;2808;51.240;6.794;2023-04-15T06:54:49;100506.00;;;11.80
5571;BMP180;2808;51.240;6.794;2023-04-15T06:57:49;100508.00;;;12.10
5571;BMP180;2808;51.240;6.794;2023-04-15T07:00:25;100506.00;;;12.50
5571;BMP180;2808;51.240;6.794;2023-04-15T07:06:38;100513.00;;;13.10
5571;BMP180;2808;51.240;6.794;2023-04-15T07:09:35;100512.00;;;13.10
5571;BMP180;2808;51.240;6.794;2023-04-15T07:18:51;100530.00;;;12.90
5571;BMP180;2808;51.240;6.794;2023-04-15T07:32:12;100553.00;;;12.40
5571;BMP180;2808;51.240;6.794;2023-04-15T07:34:58;100568.00;;;12.30
5571;BMP180;2808;51.240;6.794;2023-04-15T07:37:38;100559.00;;;11.90
5571;BMP180;2808;51.240;6.794;2023-04-15T07:40:24;100561.00;;;11.70
5571;BMP180;2808;51.240;6.794;2023-04-15T07:46:52;100569.00;;;11.70
5571;BMP180;2808;51.240;6.794;2023-04-15T07:49:52;100576.00;;;12.10
5571;BMP180;2808;51.240;6.794;2023-04-15T07:56:23;100576.00;;;12.20
5571;BMP180;2808;51.240;6.794;2023-04-15T07:59:24;100588.00;;;12.50
5571;BMP180;2808;51.240;6.794;2023-04-15T08:02:21;100581.00;;;12.70
5571;BMP180;2808;51.240;6.794;2023-04-15T08:05:23;100595.00;;;12.60
5571;BMP180;2808;51.240;6.794;2023-04-15T08:08:24;100608.00;;;12.20
5571;BMP180;2808;51.240;6.794;2023-04-15T08:11:23;100602.00;;;12.20
5571;BMP180;2808;51.240;6.794;2023-04-15T08:14:00;100607.00;;;12.00
5571;BMP180;2808;51.240;6.794;2023-04-15T08:16:40;100609.00;;;12.20
5571;BMP180;2808;51.240;6.794;2023-04-15T08:19:44;100609.00;;;12.30
5571;BMP180;2808;51.240;6.794;2023-04-15T08:25:48;100607.00;;;12.80
5571;BMP180;2808;51.240;6.794;2023-04-15T08:28:33;100612.00;;;13.00
5571;BMP180;2808;51.240;6.794;2023-04-15T08:31:14;100622.00;;;13.20
5571;BMP180;2808;51.240;6.794;2023-04-15T08:34:24;100618.00;;;13.00
5571;BMP180;2808;51.240;6.794;2023-04-15T08:40:44;100617.00;;;13.50
5571;BMP180;2808;51.240;6.794;2023-04-15T08:43:46;100631.00;;;13.30
5571;BMP180;2808;51.240;6.794;2023-04-15T08:46:23;100625.00;;;13.50
5571;BMP180;2808;51.240;6.794;2023-04-15T08:49:16;100631.00;;;13.40
5571;BMP180;2808;51.240;6.794;2023-04-15T09:02:31;100633.00;;;13.70
5571;BMP180;2808;51.240;6.794;2023-04-15T09:05:26;100635.00;;;13.70
5571;BMP180;2808;51.240;6.794;2023-04-15T09:08:21;100638.00;;;13.70
5571;BMP180;2808;51.240;6.794;2023-04-15T09:15:09;100644.00;;;13.70
5571;BMP180;2808;51.240;6.794;2023-04-15T09:25:43;100646.00;;;14.10
5571;BMP180;2808;51.240;6.794;2023-04-15T09:28:48;100647.00;;;14.30
5571;BMP180;2808;51.240;6.794;2023-04-15T09:42:12;100670.00;;;14.60
5571;BMP180;2808;51.240;6.794;2023-04-15T09:48:46;100669.00;;;14.80
5571;BMP180;2808;51.240;6.794;2023-04-15T09:51:51;100665.00;;;15.10
5571;BMP180;2808;51.240;6.794;2023-04-15T10:19:30;100704.00;;;14.20
5571;BMP180;2808;51.240;6.794;2023-04-15T10:22:35;100712.00;;;14.20
5571;BMP180;2808;51.240;6.794;2023-04-15T10:29:27;100722.00;;;14.50
5571;BMP180;2808;51.240;6.794;2023-04-15T10:36:14;100720.00;;;14.30
5571;BMP180;2808;51.240;6.794;2023-04-15T10:49:01;100729.00;;;14.10
5571;BMP180;2808;51.240;6.794;2023-04-15T10:52:42;100733.00;;;14.10
5571;BMP180;2808;51.240;6.794;2023-04-15T10:55:45;100735.00;;;14.10
5571;BMP180;2808;51.240;6.794;2023-04-15T10:58:54;100738.00;;;13.90
5571;BMP180;2808;51.240;6.794;2023-04-15T11:02:07;100741.00;;;13.70
5571;BMP180;2808;51.240;6.794;2023-04-15T11:05:16;100738.00;;;13.50
5571;BMP180;2808;51.240;6.794;2023-04-15T11:28:07;100757.00;;;13.00
5571;BMP180;2808;51.240;6.794;2023-04-15T11:31:22;100767.00;;;13.20
5571;BMP180;2808;51.240;6.794;2023-04-15T11:37:49;100772.00;;;12.90
5571;BMP180;2808;51.240;6.794;2023-04-15T11:40:58;100768.00;;;12.70
5571;BMP180;2808;51.240;6.794;2023-04-15T11:44:14;100785.00;;;12.60
5571;BMP180;2808;51.240;6.794;2023-04-15T11:47:19;100781.00;;;12.50
5571;BMP180;2808;51.240;6.794;2023-04-15T11:49:54;100795.00;;;12.50
5571;BMP180;2808;51.240;6.794;2023-04-15T11:53:03;100785.00;;;12.50
5571;BMP180;2808;51.240;6.794;2023-04-15T11:55:58;100798.00;;;12.50
5571;BMP180;2808;51.240;6.794;2023-04-15T11:58:44;100791.00;;;12.60
5571;BMP180;2808;51.240;6.794;2023-04-15T12:01:36;100798.00;;;12.40
5571;BMP180;2808;51.240;6.794;2023-04-15T12:10:48;100808.00;;;12.10
5571;BMP180;2808;51.240;6.794;2023-04-15T12:13:58;100812.00;;;12.00
5571;BMP180;2808;51.240;6.794;2023-04-15T12:17:05;100811.00;;;12.10
5571;BMP180;2808;51.240;6.794;2023-04-15T12:23:12;100825.00;;;12.50
5571;BMP180;2808;51.240;6.794;2023-04-15T12:25:56;100831.00;;;12.50
5571;BMP180;2808;51.240;6.794;2023-04-15T12:29:06;100830.00;;;12.50
5571;BMP180;2808;51.240;6.794;2023-04-15T12:32:15;100828.00;;;12.40
5571;BMP180;2808;51.240;6.794;2023-04-15T12:35:06;100847.00;;;12.20
5571;BMP180;2808;51.240;6.794;2023-04-15T12:38:10;100845.00;;;12.20
5571;BMP180;2808;51.240;6.794;2023-04-15T12:40:45;100848.00;;;12.30
5571;BMP180;2808;51.240;6.794;2023-04-15T12:43:20;100855.00;;;12.30
5571;BMP180;2808;51.240;6.794;2023-04-15T12:46:00;100851.00;;;12.30
5571;BMP180;2808;51.240;6.794;2023-04-15T12:48:57;100860.00;;;12.50
5571;BMP180;2808;51.240;6.794;2023-04-15T12:51:38;100862.00;;;12.40
5571;BMP180;2808;51.240;6.794;2023-04-15T12:54:16;100874.00;;;12.30
5571;BMP180;2808;51.240;6.794;2023-04-15T12:57:08;100870.00;;;12.20
5571;BMP180;2808;51.240;6.794;2023-04-15T12:59:48;100881.00;;;12.20
5571;BMP180;2808;51.240;6.794;2023-04-15T13:02:47;100886.00;;;12.10
5571;BMP180;2808;51.240;6.794;2023-04-15T13:05:47;100889.00;;;12.00
5571;BMP180;2808;51.240;6.794;2023-04-15T13:11:54;100902.00;;;12.00
5571;BMP180;2808;51.240;6.794;2023-04-15T13:14:38;100906.00;;;12.00
5571;BMP180;2808;51.240;6.794;2023-04-15T13:20:26;100916.00;;;11.80
5571;BMP180;2808;51.240;6.794;2023-04-15T13:23:09;100913.00;;;11.90
5571;BMP180;2808;51.240;6.794;2023-04-15T13:26:05;100913.00;;;11.90
5571;BMP180;2808;51.240;6.794;2023-04-15T13:29:15;100928.00;;;11.80
5571;BMP180;2808;51.240;6.794;2023-04-15T13:32:04;100926.00;;;11.90
5571;BMP180;2808;51.240;6.794;2023-04-15T13:35:35;100928.00;;;11.90
5571;BMP180;2808;51.240;6.794;2023-04-15T13:41:55;100934.00;;;11.90
5571;BMP180;2808;51.240;6.794;2023-04-15T13:44:42;100935.00;;;11.80
5571;BMP180;2808;51.240;6.794;2023-04-15T13:47:43;100942.00;;;11.80
5571;BMP180;2808;51.240;6.794;2023-04-15T13:50:50;100955.00;;;11.70
5571;BMP180;2808;51.240;6.794;2023-04-15T14:10:59;100960.00;;;11.80
5571;BMP180;2808;51.240;6.794;2023-04-15T14:13:41;100960.00;;;11.70
5571;BMP180;2808;51.240;6.794;2023-04-15T14:16:46;100968.00;;;11.80
5571;BMP180;2808;51.240;6.794;2023-04-15T14:19:52;100978.00;;;11.70
5571;BMP180;2808;51.240;6.794;2023-04-15T14:22:53;100976.00;;;11.70
5571;BMP180;2808;51.240;6.794;2023-04-15T14:36:14;100984.00;;;12.20
5571;BMP180;2808;51.240;6.794;2023-04-15T14:42:12;100978.00;;;12.20
5571;BMP180;2808;51.240;6.794;2023-04-15T14:45:04;100985.00;;;12.10
5571;BMP180;2808;51.240;6.794;2023-04-15T14:47:49;100992.00;;;12.00
5571;BMP180;2808;51.240;6.794;2023-04-15T14:50:43;100998.00;;;12.00
5571;BMP180;2808;51.240;6.794;2023-04-15T14:53:29;100994.00;;;12.10
5571;BMP180;2808;51.240;6.794;2023-04-15T15:03:17;101023.00;;;11.90
5571;BMP180;2808;51.240;6.794;2023-04-15T15:05:54;101012.00;;;11.90
5571;BMP180;2808;51.240;6.794;2023-04-15T15:08:42;101031.00;;;11.90
5571;BMP180;2808;51.240;6.794;2023-04-15T15:18:09;101035.00;;;11.80
5571;BMP180;2808;51.240;6.794;2023-04-15T15:21:11;101025.00;;;11.70
5571;BMP180;2808;51.240;6.794;2023-04-15T15:37:06;101059.00;;;11.40
5571;BMP180;2808;51.240;6.794;2023-04-15T15:39:44;101060.00;;;11.30
5571;BMP180;2808;51.240;6.794;2023-04-15T15:42:53;101058.00;;;11.30
5571;BMP180;2808;51.240;6.794;2023-04-15T15:45:42;101069.00;;;11.30
5571;BMP180;2808;51.240;6.794;2023-04-15T15:48:16;101060.00;;;11.20
5571;BMP180;2808;51.240;6.794;2023-04-15T15:51:10;101070.00;;;11.30
5571;BMP180;2808;51.240;6.794;2023-04-15T15:53:53;101076.00;;;11.30
5571;BMP180;2808;51.240;6.794;2023-04-15T15:56:24;101068.00;;;11.30
5571;BMP180;2808;51.240;6.794;2023-04-15T15:59:10;101074.00;;;11.10
5571;BMP180;2808;51.240;6.794;2023-04-15T16:01:49;101082.00;;;11.10
5571;BMP180;2808;51.240;6.794;2023-04-15T16:07:06;101086.00;;;11.10
5571;BMP180;2808;51.240;6.794;2023-04-15T16:09:44;101084.00;;;11.10
5571;BMP180;2808;51.240;6.794;2023-04-15T16:12:11;101089.00;;;11.10
5571;BMP180;2808;51.240;6.794;2023-04-15T16:14:52;101095.00;;;11.00
5571;BMP180;2808;51.240;6.794;2023-04-15T16:17:20;101094.00;;;11.00
5571;BMP180;2808;51.240;6.794;2023-04-15T16:19:54;101104.00;;;10.90
5571;BMP180;2808;51.240;6.794;2023-04-15T16:22:24;101108.00;;;10.90
5571;BMP180;2808;51.240;6.794;2023-04-15T16:24:55;101112.00;;;10.90
5571;BMP180;2808;51.240;6.794;2023-04-15T16:30:35;101115.00;;;10.90
5571;BMP180;2808;51.240;6.794;2023-04-15T16:33:03;101120.00;;;10.90
5571;BMP180;2808;51.240;6.794;2023-04-15T16:35:37;101118.00;;;10.80
5571;BMP180;2808;51.240;6.794;2023-04-15T16:38:05;101120.00;;;10.80
5571;BMP180;2808;51.240;6.794;2023-04-15T16:40:35;101129.00;;;10.70
5571;BMP180;2808;51.240;6.794;2023-04-15T16:43:10;101133.00;;;10.70
5571;BMP180;2808;51.240;6.794;2023-04-15T16:45:48;101131.00;;;10.70
5571;BMP180;2808;51.240;6.794;2023-04-15T16:48:30;101140.00;;;10.70
5571;BMP180;2808;51.240;6.794;2023-04-15T16:51:16;101142.00;;;10.70
5571;BMP180;2808;51.240;6.794;2023-04-15T16:53:44;101147.00;;;10.60
5571;BMP180;2808;51.240;6.794;2023-04-15T16:56:11;101142.00;;;10.60
5571;BMP180;2808;51.240;6.794;2023-04-15T16:58:44;101148.00;;;10.60
5571;BMP180;2808;51.240;6.794;2023-04-15T17:01:31;101144.00;;;10.60
5571;BMP180;2808;51.240;6.794;2023-04-15T17:04:05;101142.00;;;10.60
5571;BMP180;2808;51.240;6.794;2023-04-15T17:09:45;101157.00;;;10.60
5571;BMP180;2808;51.240;6.794;2023-04-15T17:12:21;101155.00;;;10.70
5571;BMP180;2808;51.240;6.794;2023-04-15T17:15:03;101152.00;;;10.70
5571;BMP180;2808;51.240;6.794;2023-04-15T17:18:03;101152.00;;;10.70
5571;BMP180;2808;51.240;6.794;2023-04-15T17:21:10;101157.00;;;10.60
5571;BMP180;2808;51.240;6.794;2023-04-15T17:23:45;101167.00;;;10.60
5571;BMP180;2808;51.240;6.794;2023-04-15T17:26:21;101168.00;;;10.60
5571;BMP180;2808;51.240;6.794;2023-04-15T17:28:49;101164.00;;;10.70
5571;BMP180;2808;51.240;6.794;2023-04-15T17:31:25;101165.00;;;10.60
5571;BMP180;2808;51.240;6.794;2023-04-15T17:34:04;101175.00;;;10.60
5571;BMP180;2808;51.240;6.794;2023-04-15T17:36:38;101186.00;;;10.50
5571;BMP180;2808;51.240;6.794;2023-04-15T17:39:12;101186.00;;;10.50
5571;BMP180;2808;51.240;6.794;2023-04-15T17:41:48;101187.00;;;10.50
5571;BMP180;2808;51.240;6.794;2023-04-15T17:44:19;101182.00;;;10.40
5571;BMP180;2808;51.240;6.794;2023-04-15T17:46:50;101187.00;;;10.30
5571;BMP180;2808;51.240;6.794;2023-04-15T17:49:28;101209.00;;;10.20
5571;BMP180;2808;51.240;6.794;2023-04-15T17:52:02;101207.00;;;10.20
5571;BMP180;2808;51.240;6.794;2023-04-15T17:54:34;101214.00;;;10.10
5571;BMP180;2808;51.240;6.794;2023-04-15T17:57:07;101214.00;;;10.20
5571;BMP180;2808;51.240;6.794;2023-04-15T17:59:56;101214.00;;;10.10
5571;BMP180;2808;51.240;6.794;2023-04-15T18:03:02;101223.00;;;10.10
5571;BMP180;2808;51.240;6.794;2023-04-15T18:05:51;101223.00;;;10.10
5571;BMP180;2808;51.240;6.794;2023-04-15T18:08:56;101224.00;;;10.10
5571;BMP180;2808;51.240;6.794;2023-04-15T18:12:22;101223.00;;;9.90
5571;BMP180;2808;51.240;6.794;2023-04-15T18:15:12;101228.00;;;9.90
5571;BMP180;2808;51.240;6.794;2023-04-15T18:17:56;101235.00;;;9.90
5571;BMP180;2808;51.240;6.794;2023-04-15T18:20:42;101238.00;;;9.80
5571;BMP180;2808;51.240;6.794;2023-04-15T18:23:12;101246.00;;;9.80
5571;BMP180;2808;51.240;6.794;2023-04-15T18:25:59;101248.00;;;9.90
5571;BMP180;2808;51.240;6.794;2023-04-15T18:29:01;101254.00;;;9.90
5571;BMP180;2808;51.240;6.794;2023-04-15T18:31:34;101260.00;;;9.80
5571;BMP180;2808;51.240;6.794;2023-04-15T18:37:32;101280.00;;;9.70
5571;BMP180;2808;51.240;6.794;2023-04-15T18:40:06;101280.00;;;9.60
5571;BMP180;2808;51.240;6.794;2023-04-15T18:45:30;101286.00;;;9.40
5571;BMP180;2808;51.240;6.794;2023-04-15T18:48:39;101293.00;;;9.40
5571;BMP180;2808;51.240;6.794;2023-04-15T18:51:26;101284.00;;;9.50
5571;BMP180;2808;51.240;6.794;2023-04-15T18:54:06;101294.00;;;9.50
5571;BMP180;2808;51.240;6.794;2023-04-15T18:56:41;101301.00;;;9.50
5571;BMP180;2808;51.240;6.794;2023-04-15T18:59:18;101301.00;;;9.40
5571;BMP180;2808;51.240;6.794;2023-04-15T19:02:07;101303.00;;;9.40
5571;BMP180;2808;51.240;6.794;2023-04-15T19:05:09;101318.00;;;9.40
5571;BMP180;2808;51.240;6.794;2023-04-15T19:07:51;101315.00;;;9.40
5571;BMP180;2808;51.240;6.794;2023-04-15T19:10:22;101321.00;;;9.30
5571;BMP180;2808;51.240;6.794;2023-04-15T19:13:01;101318.00;;;9.30
5571;BMP180;2808;51.240;6.794;2023-04-15T19:15:33;101323.00;;;9.30
5571;BMP180;2808;51.240;6.794;2023-04-15T19:18:16;101333.00;;;9.40
5571;BMP180;2808;51.240;6.794;2023-04-15T19:21:18;101330.00;;;9.40
5571;BMP180;2808;51.240;6.794;2023-04-15T19:24:17;101337.00;;;9.40
5571;BMP180;2808;51.240;6.794;2023-04-15T19:26:51;101331.00;;;9.40
5571;BMP180;2808;51.240;6.794;2023-04-15T19:29:24;101333.00;;;9.50
5571;BMP180;2808;51.240;6.794;2023-04-15T19:35:22;101342.00;;;9.40
5571;BMP180;2808;51.240;6.794;2023-04-15T19:38:24;101346.00;;;9.40
5571;BMP180;2808;51.240;6.794;2023-04-15T19:44:47;101352.00;;;9.40
5571;BMP180;2808;51.240;6.794;2023-04-15T19:47:24;101357.00;;;9.50
5571;BMP180;2808;51.240;6.794;2023-04-15T19:52:38;101364.00;;;9.50
5571;BMP180;2808;51.240;6.794;2023-04-15T19:55:15;101362.00;;;9.50
5571;BMP180;2808;51.240;6.794;2023-04-15T19:57:47;101362.00;;;9.40
5571;BMP180;2808;51.240;6.794;2023-04-15T20:00:22;101369.00;;;9.30
5571;BMP180;2808;51.240;6.794;2023-04-15T20:02:53;101364.00;;;9.20
5571;BMP180;2808;51.240;6.794;2023-04-15T20:05:23;101375.00;;;9.10
5571;BMP180;2808;51.240;6.794;2023-04-15T20:07:56;101374.00;;;9.10
5571;BMP180;2808;51.240;6.794;2023-04-15T20:10:29;101379.00;;;9.10
5571;BMP180;2808;51.240;6.794;2023-04-15T20:12:59;101381.00;;;9.00
5571;BMP180;2808;51.240;6.794;2023-04-15T20:15:31;101383.00;;;9.00
5571;BMP180;2808;51.240;6.794;2023-04-15T20:18:02;101385.00;;;9.00
5571;BMP180;2808;51.240;6.794;2023-04-15T20:20:41;101381.00;;;9.00
5571;BMP180;2808;51.240;6.794;2023-04-15T20:23:13;101381.00;;;8.90
5571;BMP180;2808;51.240;6.794;2023-04-15T20:26:02;101374.00;;;8.80
5571;BMP180;2808;51.240;6.794;2023-04-15T20:28:39;101389.00;;;8.90
5571;BMP180;2808;51.240;6.794;2023-04-15T20:31:13;101397.00;;;8.90
5571;BMP180;2808;51.240;6.794;2023-04-15T20:33:56;101388.00;;;8.90
5571;BMP180;2808;51.240;6.794;2023-04-15T20:36:48;101397.00;;;8.90
5571;BMP180;2808;51.240;6.794;2023-04-15T20:40:37;101398.00;;;9.00
5571;BMP180;2808;51.240;6.794;2023-04-15T20:42:37;101393.00;;;9.00
5571;BMP180;2808;51.240;6.794;2023-04-15T20:45:11;101392.00;;;9.00
5571;BMP180;2808;51.240;6.794;2023-04-15T20:47:49;101387.00;;;9.00
5571;BMP180;2808;51.240;6.794;2023-04-15T20:53:38;101397.00;;;8.90
5571;BMP180;2808;51.240;6.794;2023-04-15T20:56:09;101398.00;;;8.90
5571;BMP180;2808;51.240;6.794;2023-04-15T20:58:40;101398.00;;;8.90
5571;BMP180;2808;51.240;6.794;2023-04-15T21:01:15;101400.00;;;9.00
5571;BMP180;2808;51.240;6.794;2023-04-15T21:03:53;101388.00;;;9.00
5571;BMP180;2808;51.240;6.794;2023-04-15T21:06:27;101403.00;;;9.00
5571;BMP180;2808;51.240;6.794;2023-04-15T21:08:59;101401.00;;;8.90
5571;BMP180;2808;51.240;6.794;2023-04-15T21:11:30;101400.00;;;8.90
5571;BMP180;2808;51.240;6.794;2023-04-15T21:14:19;101398.00;;;8.90
5571;BMP180;2808;51.240;6.794;2023-04-15T21:16:56;101391.00;;;8.80
5571;BMP180;2808;51.240;6.794;2023-04-15T21:19:25;101401.00;;;8.90
5571;BMP180;2808;51.240;6.794;2023-04-15T21:21:59;101404.00;;;8.90
5571;BMP180;2808;51.240;6.794;2023-04-15T21:24:30;101410.00;;;8.90